KI19

Currently at 12:15 EDT
TEMP
77°F
FEELS LIKE
77°F
HUMIDITY
68%%
DEW POINT
65°F
WIND  
0
MPH
BAROMETER
29.99  
IN

METAR KI19 131615Z AUTO 00000KT 10SM SCT025 SCT030 BKN060 25/18 A2999 RMK AO2 T02470183

ADDS  |   NWS

MoDaWx  |   KI19  |   KFFO
Free Web Hosting